createdAt,value
2018-01-07T00:02:12.771Z,6.50
2018-01-07T00:04:41.287Z,6.50
2018-01-07T00:07:09.878Z,6.50
2018-01-07T00:09:38.415Z,6.50
2018-01-07T00:12:06.950Z,6.50
2018-01-07T00:14:35.504Z,6.50
2018-01-07T00:17:04.071Z,6.50
2018-01-07T00:19:32.608Z,6.50
2018-01-07T00:22:01.115Z,6.50
2018-01-07T00:24:30.446Z,6.50
2018-01-07T00:26:58.992Z,6.50
2018-01-07T00:29:28.302Z,6.40
2018-01-07T00:31:57.314Z,6.50
2018-01-07T00:34:25.856Z,6.50
2018-01-07T00:36:54.347Z,6.40
2018-01-07T00:39:23.650Z,6.40
2018-01-07T00:41:53.016Z,6.40
2018-01-07T00:44:21.650Z,6.40
2018-01-07T00:46:50.194Z,6.40
2018-01-07T00:49:18.746Z,6.40
2018-01-07T00:51:47.259Z,6.40
2018-01-07T00:54:15.823Z,6.40
2018-01-07T00:56:44.366Z,6.30
2018-01-07T00:59:12.881Z,6.30
2018-01-07T01:01:41.427Z,6.40
2018-01-07T01:04:09.973Z,6.30
2018-01-07T01:06:38.494Z,6.30
2018-01-07T01:09:07.040Z,6.30
2018-01-07T01:11:35.600Z,6.30
2018-01-07T01:14:04.158Z,6.30
2018-01-07T01:16:32.682Z,6.40
2018-01-07T01:21:54.106Z,6.30
2018-01-07T01:24:22.656Z,6.30
2018-01-07T01:26:51.180Z,6.30
2018-01-07T01:29:19.739Z,6.30
2018-01-07T01:31:48.275Z,6.30
2018-01-07T01:34:17.526Z,6.30
2018-01-07T01:36:46.070Z,6.30
2018-01-07T01:39:14.614Z,6.30
2018-01-07T01:41:43.102Z,6.20
2018-01-07T01:44:11.634Z,6.30
2018-01-07T01:46:40.182Z,6.20
2018-01-07T01:49:25.207Z,6.20
2018-01-07T01:51:53.706Z,6.20
2018-01-07T01:54:22.206Z,6.20
2018-01-07T01:56:51.510Z,6.20
2018-01-07T01:59:20.794Z,6.20
2018-01-07T02:01:49.259Z,6.20
2018-01-07T02:04:17.789Z,6.20
2018-01-07T02:06:46.314Z,6.20
2018-01-07T02:09:14.831Z,6.20
2018-01-07T02:11:44.132Z,6.10
2018-01-07T02:14:13.431Z,6.10
2018-01-07T02:16:42.772Z,6.00
2018-01-07T02:19:11.354Z,6.00
2018-01-07T02:21:39.893Z,6.00
2018-01-07T02:24:08.441Z,6.00
2018-01-07T02:26:36.972Z,6.00
2018-01-07T02:29:06.290Z,5.90
2018-01-07T02:31:34.833Z,5.90
2018-01-07T02:34:03.368Z,5.90
2018-01-07T02:36:31.929Z,5.90
2018-01-07T02:39:00.483Z,5.90
2018-01-07T02:41:29.046Z,5.80
2018-01-07T02:43:57.580Z,5.80
2018-01-07T02:46:26.079Z,5.80
2018-01-07T02:48:54.682Z,5.70
2018-01-07T02:51:23.209Z,5.70
2018-01-07T02:53:52.519Z,5.70
2018-01-07T02:56:21.796Z,5.70
2018-01-07T02:58:50.338Z,5.70
2018-01-07T03:01:18.872Z,5.70
2018-01-07T03:03:48.175Z,5.60
2018-01-07T03:06:17.491Z,5.60
2018-01-07T03:08:45.979Z,5.50
2018-01-07T03:11:14.537Z,5.60
2018-01-07T03:13:43.836Z,5.50
2018-01-07T03:16:13.089Z,5.50
2018-01-07T03:18:41.617Z,5.50
2018-01-07T03:21:10.916Z,5.40
2018-01-07T03:23:40.201Z,5.40
2018-01-07T03:26:08.750Z,5.40
2018-01-07T03:28:37.275Z,5.40
2018-01-07T03:31:05.822Z,5.40
2018-01-07T03:33:34.370Z,5.30
2018-01-07T03:36:02.913Z,5.30
2018-01-07T03:38:31.462Z,5.30
2018-01-07T03:41:00.028Z,5.30
2018-01-07T03:43:28.562Z,5.20
2018-01-07T03:45:57.074Z,5.20
2018-01-07T03:48:25.642Z,5.20
2018-01-07T03:50:54.980Z,5.10
2018-01-07T03:53:23.530Z,5.10
2018-01-07T03:55:52.823Z,5.10
2018-01-07T03:58:22.109Z,5.10
2018-01-07T04:00:50.626Z,5.10
2018-01-07T04:03:19.162Z,5.10
2018-01-07T04:05:47.721Z,5.10
2018-01-07T04:08:16.242Z,5.10
2018-01-07T04:10:44.767Z,5.00
2018-01-07T04:13:13.282Z,5.00
2018-01-07T04:15:41.779Z,5.00
2018-01-07T04:18:10.298Z,5.00
2018-01-07T04:20:38.819Z,5.00
2018-01-07T04:23:07.303Z,5.00
2018-01-07T04:25:35.833Z,5.00
2018-01-07T04:28:05.132Z,4.90
2018-01-07T04:30:34.491Z,5.00
2018-01-07T04:33:03.078Z,4.90
2018-01-07T04:35:31.823Z,4.90
2018-01-07T04:38:00.370Z,4.90
2018-01-07T04:40:29.695Z,4.90
2018-01-07T04:42:58.187Z,4.90
2018-01-07T04:45:27.510Z,4.90
2018-01-07T04:47:56.042Z,4.90
2018-01-07T04:50:25.302Z,4.90
2018-01-07T04:52:53.818Z,4.80
2018-01-07T04:55:22.383Z,4.90
2018-01-07T04:57:51.034Z,4.90
2018-01-07T05:00:19.598Z,4.90
2018-01-07T05:02:48.148Z,4.80
2018-01-07T05:05:17.492Z,4.80
2018-01-07T05:07:46.036Z,4.80
2018-01-07T05:10:15.297Z,4.80
2018-01-07T05:12:43.538Z,4.80
2018-01-07T05:15:12.065Z,4.80
2018-01-07T05:17:40.585Z,4.80
2018-01-07T05:20:09.901Z,4.80
2018-01-07T05:22:38.445Z,4.80
2018-01-07T05:25:06.995Z,4.80
2018-01-07T05:27:35.566Z,4.80
2018-01-07T05:30:03.834Z,4.80
2018-01-07T05:32:32.390Z,4.80
2018-01-07T05:35:01.673Z,4.80
2018-01-07T05:37:30.246Z,4.80
2018-01-07T05:39:58.602Z,4.80
2018-01-07T05:42:27.168Z,4.80
2018-01-07T05:44:55.732Z,4.80
2018-01-07T05:47:24.222Z,4.70
2018-01-07T05:49:52.767Z,4.80
2018-01-07T05:52:21.290Z,4.80
2018-01-07T05:54:49.787Z,4.80
2018-01-07T05:57:18.325Z,4.80
2018-01-07T05:59:47.650Z,4.80
2018-01-07T06:02:16.147Z,4.80
2018-01-07T06:04:44.720Z,4.80
2018-01-07T06:07:13.250Z,4.70
2018-01-07T06:09:41.798Z,4.80
2018-01-07T06:12:10.358Z,4.70
2018-01-07T06:14:45.208Z,4.70
2018-01-07T06:17:13.473Z,4.70
2018-01-07T06:19:42.003Z,4.70
2018-01-07T06:22:10.486Z,4.70
2018-01-07T06:24:39.014Z,4.70
2018-01-07T06:27:07.565Z,4.70
2018-01-07T06:29:36.118Z,4.70
2018-01-07T06:32:04.666Z,4.70
2018-01-07T06:34:33.218Z,4.70
2018-01-07T06:37:02.524Z,4.70
2018-01-07T06:39:31.825Z,4.70
2018-01-07T06:42:00.372Z,4.70
2018-01-07T06:44:28.862Z,4.80
2018-01-07T06:46:57.427Z,4.80
2018-01-07T06:49:25.973Z,4.70
2018-01-07T06:51:54.471Z,4.70
2018-01-07T06:54:23.060Z,4.70
2018-01-07T06:56:51.591Z,4.70
2018-01-07T06:59:20.842Z,4.70
2018-01-07T07:01:49.357Z,4.70
2018-01-07T07:04:17.871Z,4.70
2018-01-07T07:06:46.389Z,4.70
2018-01-07T07:09:14.944Z,4.70
2018-01-07T07:11:43.454Z,4.70
2018-01-07T07:14:11.991Z,4.70
2018-01-07T07:16:40.522Z,4.70
2018-01-07T07:19:09.070Z,4.70
2018-01-07T07:21:37.570Z,4.70
2018-01-07T07:24:06.096Z,4.70
2018-01-07T07:26:34.640Z,4.70
2018-01-07T07:29:03.158Z,4.70
2018-01-07T07:31:31.714Z,4.70
2018-01-07T07:34:00.273Z,4.70
2018-01-07T07:36:28.797Z,4.70
2018-01-07T07:38:57.362Z,4.70
2018-01-07T07:41:25.927Z,4.70
2018-01-07T07:43:54.448Z,4.70
2018-01-07T07:46:23.002Z,4.70
2018-01-07T07:48:51.583Z,4.70
2018-01-07T07:51:20.148Z,4.70
2018-01-07T07:53:48.738Z,4.70
2018-01-07T07:56:17.271Z,4.70
2018-01-07T07:58:46.570Z,4.80
2018-01-07T08:01:15.922Z,4.80
2018-01-07T08:03:44.454Z,4.80
2018-01-07T08:06:12.960Z,4.80
2018-01-07T08:08:41.495Z,4.80
2018-01-07T08:11:10.040Z,4.80
2018-01-07T08:13:38.654Z,4.80
2018-01-07T08:16:07.199Z,4.80
2018-01-07T08:18:35.762Z,4.80
2018-01-07T08:21:05.076Z,4.80
2018-01-07T08:23:33.673Z,4.80
2018-01-07T08:26:02.207Z,4.80
2018-01-07T08:28:30.728Z,4.80
2018-01-07T08:30:59.272Z,4.80
2018-01-07T08:33:27.822Z,4.80
2018-01-07T08:35:56.366Z,4.80
2018-01-07T08:38:24.914Z,4.80
2018-01-07T08:40:53.460Z,4.80
2018-01-07T08:43:22.012Z,4.80
2018-01-07T08:45:50.553Z,4.80
2018-01-07T08:48:19.119Z,4.80
2018-01-07T08:50:47.666Z,4.80
2018-01-07T08:53:16.193Z,4.90
2018-01-07T08:55:44.706Z,4.90
2018-01-07T08:58:13.981Z,4.90
2018-01-07T09:00:42.554Z,4.90
2018-01-07T09:03:23.762Z,4.90
2018-01-07T09:05:53.074Z,4.90
2018-01-07T09:08:22.395Z,4.90
2018-01-07T09:10:50.915Z,4.90
2018-01-07T09:13:19.567Z,5.00
2018-01-07T09:15:48.114Z,4.90
2018-01-07T09:18:17.426Z,4.90
2018-01-07T09:20:45.999Z,4.90
2018-01-07T09:23:15.335Z,4.90
2018-01-07T09:25:43.865Z,4.90
2018-01-07T09:28:12.422Z,4.90
2018-01-07T09:30:46.694Z,4.90
2018-01-07T09:33:20.036Z,5.00
2018-01-07T09:35:49.004Z,5.00
2018-01-07T09:38:17.512Z,5.00
2018-01-07T09:40:47.054Z,5.00
2018-01-07T09:43:18.997Z,5.10
2018-01-07T09:45:47.574Z,5.20
2018-01-07T09:48:16.268Z,5.10
2018-01-07T09:50:44.834Z,5.20
2018-01-07T09:53:20.999Z,5.20
2018-01-07T09:55:49.566Z,5.30
2018-01-07T09:58:18.199Z,5.20
2018-01-07T10:00:46.890Z,5.20
2018-01-07T10:03:16.247Z,5.20
2018-01-07T10:05:44.959Z,5.20
2018-01-07T10:08:15.481Z,5.20
2018-01-07T10:10:53.758Z,5.20
2018-01-07T10:13:23.342Z,5.20
2018-01-07T10:15:51.915Z,5.20
2018-01-07T10:18:20.418Z,5.20
2018-01-07T10:20:58.618Z,5.20
2018-01-07T10:23:27.174Z,5.30
2018-01-07T10:25:56.492Z,5.40
2018-01-07T10:28:25.812Z,5.50
2018-01-07T10:30:54.337Z,5.50
2018-01-07T10:33:22.860Z,5.50
2018-01-07T10:35:51.398Z,5.60
2018-01-07T10:38:19.935Z,5.60
2018-01-07T10:40:52.143Z,5.50
2018-01-07T10:43:20.672Z,5.60
2018-01-07T10:45:49.217Z,5.60
2018-01-07T10:48:17.761Z,5.60
2018-01-07T10:50:46.295Z,5.60
2018-01-07T10:53:14.843Z,5.70
2018-01-07T10:55:43.378Z,5.60
2018-01-07T10:58:11.920Z,5.60
2018-01-07T11:00:45.515Z,5.70
2018-01-07T11:03:14.095Z,5.60
2018-01-07T11:05:42.690Z,5.70
2018-01-07T11:08:11.226Z,5.70
2018-01-07T11:10:39.726Z,5.80
2018-01-07T11:13:09.227Z,5.70
2018-01-07T11:15:37.760Z,5.70
2018-01-07T11:18:06.301Z,5.70
2018-01-07T11:20:34.818Z,5.60
2018-01-07T11:23:03.348Z,5.60
2018-01-07T11:25:31.885Z,5.60
2018-01-07T11:28:00.394Z,5.60
2018-01-07T11:30:28.926Z,5.70
2018-01-07T11:32:57.464Z,5.60
2018-01-07T11:35:26.033Z,5.60
2018-01-07T11:37:54.626Z,5.60
2018-01-07T11:40:23.200Z,5.70
2018-01-07T11:42:52.457Z,5.80
2018-01-07T11:45:27.033Z,5.70
2018-01-07T11:47:55.582Z,5.80
2018-01-07T11:50:24.113Z,5.70
2018-01-07T11:52:56.568Z,5.70
2018-01-07T11:55:25.124Z,5.60
2018-01-07T11:57:53.835Z,5.70
2018-01-07T12:00:22.411Z,5.50
2018-01-07T12:02:51.718Z,6.20
2018-01-07T12:05:20.979Z,6.50
2018-01-07T12:07:49.688Z,6.50
2018-01-07T12:10:20.210Z,6.80
2018-01-07T12:12:49.554Z,7.00
2018-01-07T12:15:18.122Z,7.00
2018-01-07T12:17:46.654Z,6.90
2018-01-07T12:20:15.199Z,6.60
2018-01-07T12:22:43.719Z,7.20
2018-01-07T12:25:12.233Z,7.20
2018-01-07T12:27:40.786Z,6.90
2018-01-07T12:30:09.332Z,6.60
2018-01-07T12:32:38.582Z,6.60
2018-01-07T12:35:07.112Z,6.60
2018-01-07T12:37:35.685Z,6.40
2018-01-07T12:40:04.258Z,6.30
2018-01-07T12:42:32.792Z,6.40
2018-01-07T12:45:01.349Z,6.40
2018-01-07T12:47:33.774Z,6.30
2018-01-07T12:50:02.317Z,6.20
2018-01-07T12:52:30.943Z,6.10
2018-01-07T12:55:00.326Z,6.00
2018-01-07T12:57:28.874Z,6.00
2018-01-07T13:02:50.476Z,5.80
2018-01-07T13:10:18.369Z,5.90
2018-01-07T13:12:47.731Z,5.80
2018-01-07T13:15:16.260Z,5.80
2018-01-07T13:17:45.528Z,5.80
2018-01-07T13:20:14.066Z,5.80
2018-01-07T13:22:42.702Z,5.80
2018-01-07T13:25:11.271Z,5.80
2018-01-07T13:27:40.470Z,5.80
2018-01-07T13:30:09.186Z,5.80
2018-01-07T13:32:38.622Z,5.80
2018-01-07T13:35:07.884Z,5.80
2018-01-07T13:37:36.444Z,5.80
2018-01-07T13:40:08.475Z,5.80
2018-01-07T13:42:37.855Z,5.70
2018-01-07T13:45:06.330Z,5.70
2018-01-07T13:47:35.662Z,5.60
2018-01-07T13:50:04.235Z,5.60
2018-01-07T13:52:32.843Z,5.50
2018-01-07T13:55:01.417Z,5.50
2018-01-07T13:57:32.752Z,5.50
2018-01-07T14:00:01.352Z,5.50
2018-01-07T14:02:29.917Z,5.50
2018-01-07T14:05:01.974Z,5.50
2018-01-07T14:07:30.559Z,5.40
2018-01-07T14:09:59.129Z,5.40
2018-01-07T14:12:35.568Z,5.30
2018-01-07T14:15:04.105Z,5.30
2018-01-07T14:17:32.632Z,5.20
2018-01-07T14:20:01.203Z,5.10
2018-01-07T14:22:30.028Z,5.10
2018-01-07T14:24:58.551Z,5.10
2018-01-07T14:27:27.099Z,5.10
2018-01-07T14:29:55.655Z,5.00
2018-01-07T14:32:24.211Z,5.00
2018-01-07T14:34:52.742Z,5.00
2018-01-07T14:37:22.023Z,5.00
2018-01-07T14:39:52.629Z,4.90
2018-01-07T14:42:21.372Z,5.00
2018-01-07T14:44:49.967Z,5.00
2018-01-07T14:47:27.558Z,5.00
2018-01-07T14:49:56.188Z,5.00
2018-01-07T14:52:40.724Z,4.90
2018-01-07T14:55:09.432Z,4.90
2018-01-07T14:57:38.026Z,5.00
2018-01-07T15:00:07.459Z,4.90
2018-01-07T15:02:35.992Z,4.90
2018-01-07T15:05:03.928Z,4.90
2018-01-07T15:07:33.250Z,4.90
2018-01-07T15:10:01.816Z,4.90
2018-01-07T15:12:30.376Z,4.80
2018-01-07T15:14:58.922Z,4.80
2018-01-07T15:17:27.449Z,4.80
2018-01-07T15:19:55.850Z,4.70
2018-01-07T15:22:24.405Z,4.70
2018-01-07T15:24:52.918Z,4.60
2018-01-07T15:27:21.487Z,4.60
2018-01-07T15:29:50.059Z,4.60
2018-01-07T15:32:18.570Z,4.50
2018-01-07T15:34:47.192Z,4.50
2018-01-07T15:37:16.507Z,4.40
2018-01-07T15:39:45.071Z,4.40
2018-01-07T15:42:13.597Z,4.40
2018-01-07T15:44:42.155Z,4.40
2018-01-07T15:47:10.667Z,4.30
2018-01-07T15:49:39.240Z,4.30
2018-01-07T15:52:07.800Z,4.30
2018-01-07T15:54:37.106Z,4.20
2018-01-07T15:57:05.627Z,4.20
2018-01-07T15:59:48.177Z,4.20
2018-01-07T16:02:17.446Z,4.20
2018-01-07T16:04:45.963Z,4.20
2018-01-07T16:07:14.466Z,4.20
2018-01-07T16:09:42.990Z,4.20
2018-01-07T16:12:11.575Z,4.20
2018-01-07T16:14:52.176Z,4.30
2018-01-07T16:17:21.499Z,4.30
2018-01-07T16:19:50.039Z,4.20
2018-01-07T16:22:18.610Z,4.30
2018-01-07T16:24:47.175Z,4.30
2018-01-07T16:27:15.694Z,4.30
2018-01-07T16:29:44.234Z,4.30
2018-01-07T16:32:12.753Z,4.20
2018-01-07T16:34:41.379Z,4.20
2018-01-07T16:37:09.911Z,4.20
2018-01-07T16:39:38.474Z,4.20
2018-01-07T16:42:07.004Z,4.20
2018-01-07T16:44:36.305Z,4.20
2018-01-07T16:47:05.629Z,4.20
2018-01-07T16:49:34.173Z,4.20
2018-01-07T16:52:02.734Z,4.20
2018-01-07T16:54:31.310Z,4.20
2018-01-07T16:56:59.879Z,4.20
2018-01-07T16:59:28.430Z,4.20
2018-01-07T17:01:57.757Z,4.20
2018-01-07T17:04:26.314Z,4.20
2018-01-07T17:06:54.864Z,4.20
2018-01-07T17:09:23.415Z,4.20
2018-01-07T17:11:52.835Z,4.20
2018-01-07T17:14:22.552Z,4.20
2018-01-07T17:16:51.821Z,4.20
2018-01-07T17:19:20.905Z,4.20
2018-01-07T17:21:49.563Z,4.20
2018-01-07T17:24:18.891Z,4.20
2018-01-07T17:26:47.406Z,4.20
2018-01-07T17:29:15.963Z,4.20
2018-01-07T17:31:44.518Z,4.20
2018-01-07T17:34:13.820Z,4.20
2018-01-07T17:36:42.396Z,4.20
2018-01-07T17:39:11.702Z,4.30
2018-01-07T17:41:40.230Z,4.30
2018-01-07T17:44:08.791Z,4.30
2018-01-07T17:46:37.376Z,4.30
2018-01-07T17:49:05.935Z,4.30
2018-01-07T17:51:34.191Z,4.30
2018-01-07T17:54:03.498Z,4.30
2018-01-07T17:56:32.818Z,4.30
2018-01-07T17:59:01.376Z,4.30
2018-01-07T18:01:30.216Z,4.30
2018-01-07T18:04:00.217Z,4.30
2018-01-07T18:06:28.743Z,4.30
2018-01-07T18:08:58.725Z,4.30
2018-01-07T18:11:30.565Z,4.30
2018-01-07T18:13:59.192Z,4.30
2018-01-07T18:16:29.478Z,4.30
2018-01-07T18:18:59.721Z,4.30
2018-01-07T18:21:28.653Z,4.30
2018-01-07T18:23:57.219Z,4.30
2018-01-07T18:26:28.980Z,4.30
2018-01-07T18:28:57.836Z,4.30
2018-01-07T18:31:30.464Z,4.30
2018-01-07T18:34:08.690Z,4.30
2018-01-07T18:36:37.293Z,4.30
2018-01-07T18:39:05.896Z,4.30
2018-01-07T18:41:34.753Z,4.30
2018-01-07T18:44:03.457Z,4.30
2018-01-07T18:46:33.525Z,4.30
2018-01-07T18:49:02.588Z,4.40
2018-01-07T18:51:31.318Z,4.40
2018-01-07T18:54:00.800Z,4.40
2018-01-07T18:56:29.552Z,4.40
2018-01-07T18:58:59.270Z,4.40
2018-01-07T19:01:28.789Z,4.40
2018-01-07T19:03:57.419Z,4.40
2018-01-07T19:06:26.731Z,4.40
2018-01-07T19:08:55.351Z,4.40
2018-01-07T19:11:24.266Z,4.40
2018-01-07T19:13:52.797Z,4.40
2018-01-07T19:16:21.367Z,4.40
2018-01-07T19:18:50.670Z,4.40
2018-01-07T19:21:19.938Z,4.40
2018-01-07T19:23:48.474Z,4.40
2018-01-07T19:26:17.050Z,4.40
2018-01-07T19:28:45.622Z,4.50
2018-01-07T19:31:33.805Z,4.50
2018-01-07T19:34:02.346Z,4.40
2018-01-07T19:36:30.876Z,4.50
2018-01-07T19:38:59.414Z,4.50
2018-01-07T19:41:27.975Z,4.50
2018-01-07T19:43:56.521Z,4.50
2018-01-07T19:46:25.062Z,4.50
2018-01-07T19:48:53.626Z,4.50
2018-01-07T19:51:22.946Z,4.50
2018-01-07T19:53:51.522Z,4.50
2018-01-07T19:56:20.806Z,4.60
2018-01-07T19:58:50.105Z,4.50
2018-01-07T20:01:19.438Z,4.50
2018-01-07T20:03:48.018Z,4.50
2018-01-07T20:06:16.530Z,4.60
2018-01-07T20:08:45.083Z,4.60
2018-01-07T20:11:13.646Z,4.60
2018-01-07T20:13:42.979Z,4.60
2018-01-07T20:16:11.523Z,4.60
2018-01-07T20:18:40.826Z,4.60
2018-01-07T20:21:10.151Z,4.60
2018-01-07T20:23:38.692Z,4.60
2018-01-07T20:26:07.278Z,4.60
2018-01-07T20:28:35.809Z,4.60
2018-01-07T20:31:23.798Z,4.60
2018-01-07T20:33:52.317Z,4.50
2018-01-07T20:36:20.835Z,4.60
2018-01-07T20:38:49.395Z,4.60
2018-01-07T20:41:17.966Z,4.60
2018-01-07T20:43:46.578Z,4.60
2018-01-07T20:46:15.129Z,4.60
2018-01-07T20:48:43.690Z,4.60
2018-01-07T20:51:12.988Z,4.60
2018-01-07T20:53:42.301Z,4.60
2018-01-07T20:56:10.902Z,4.50
2018-01-07T20:58:39.410Z,4.60
2018-01-07T21:01:07.966Z,4.60
2018-01-07T21:03:36.512Z,4.60
2018-01-07T21:06:05.087Z,4.60
2018-01-07T21:08:34.197Z,4.60
2018-01-07T21:11:03.220Z,4.60
2018-01-07T21:13:31.795Z,4.50
2018-01-07T21:16:00.386Z,4.60
2018-01-07T21:18:28.947Z,4.60
2018-01-07T21:20:58.236Z,4.60
2018-01-07T21:23:26.800Z,4.50
2018-01-07T21:25:55.068Z,4.60
2018-01-07T21:28:24.598Z,4.60
2018-01-07T21:30:53.949Z,4.60
2018-01-07T21:33:23.250Z,4.60
2018-01-07T21:35:51.803Z,4.60
2018-01-07T21:38:21.125Z,4.60
2018-01-07T21:40:50.451Z,4.60
2018-01-07T21:43:19.005Z,4.60
2018-01-07T21:45:47.549Z,4.60
2018-01-07T21:48:16.099Z,4.60
2018-01-07T21:50:44.657Z,4.60
2018-01-07T21:53:13.183Z,4.60
2018-01-07T21:55:41.762Z,4.60
2018-01-07T21:58:10.258Z,4.60
2018-01-07T22:00:49.833Z,4.60
2018-01-07T22:03:29.430Z,4.60
2018-01-07T22:06:12.180Z,4.60
2018-01-07T22:08:41.465Z,4.60
2018-01-07T22:11:10.717Z,4.60
2018-01-07T22:13:39.253Z,4.60
2018-01-07T22:16:08.557Z,4.60
2018-01-07T22:18:37.830Z,4.60
2018-01-07T22:21:06.391Z,4.60
2018-01-07T22:23:34.939Z,4.60
2018-01-07T22:26:03.489Z,4.60
2018-01-07T22:28:32.826Z,4.60
2018-01-07T22:31:01.359Z,4.60
2018-01-07T22:33:29.892Z,4.60
2018-01-07T22:35:58.473Z,4.60
2018-01-07T22:38:27.006Z,4.70
2018-01-07T22:40:55.395Z,4.70
2018-01-07T22:43:23.934Z,4.70
2018-01-07T22:45:52.481Z,4.70
2018-01-07T22:48:21.722Z,4.70
2018-01-07T22:50:50.292Z,4.70
2018-01-07T22:53:18.818Z,4.70
2018-01-07T22:55:48.116Z,4.70
2018-01-07T22:58:16.866Z,4.70
2018-01-07T23:00:45.419Z,4.70
2018-01-07T23:03:13.926Z,4.70
2018-01-07T23:05:42.457Z,4.70
2018-01-07T23:08:11.001Z,4.70
2018-01-07T23:10:39.515Z,4.70
2018-01-07T23:13:08.816Z,4.70
2018-01-07T23:15:37.379Z,4.70
2018-01-07T23:18:05.907Z,4.70
2018-01-07T23:20:34.459Z,4.70
2018-01-07T23:23:03.000Z,4.70
2018-01-07T23:25:31.533Z,4.70
2018-01-07T23:28:00.872Z,4.80
2018-01-07T23:30:29.406Z,4.70
2018-01-07T23:32:57.921Z,4.80
2018-01-07T23:35:27.046Z,4.80
2018-01-07T23:37:55.586Z,4.80
2018-01-07T23:40:24.877Z,4.80
2018-01-07T23:42:54.189Z,4.80
2018-01-07T23:45:23.510Z,4.80
2018-01-07T23:47:52.015Z,4.80
2018-01-07T23:50:20.552Z,4.80
2018-01-07T23:52:49.894Z,4.80
2018-01-07T23:55:18.439Z,4.80
2018-01-07T23:57:47.745Z,4.80
